Ana Sayfa
METAR-TAF:

METAR-TAF

Havaalanları :

Voronezh Uluslararası Havalimanı

Voronej, Rusya

Enlem: 51-39N, Boylam: 039-15E, yükseklik: 154 m

Güncel hava durumu gözlemi

Rapor saat 18:00 UTC de 26 dakika önce yapıldı.
Rüzgar kuzeybatıdan 12 kt
Sıcaklık -2°C
Nem 63%
Basınç 1014 hPa
Görüş mesafesi 10 km veya daha fazla
1500 m altında bulut yok ve kümülonimbus yok

METAR: UUOO 311800Z 31006MPS CAVOK M02/M08 Q1014 R30/090070 NOSIG RMK QFE747

Saat: 21:26 (18:26 UTC)

Tahmin

Rapor saat 17:00 UTC de 1 saat ve 26 dakika önce yapıldı.
Ayın 31'si saat 18 UTC'den ayın 01'si saat 03 UTC'ye kadar geçerli Tahmin
Rüzgar batı/kuzeybatıdan 14 kt
Görüş mesafesi 10 km veya daha fazla
1500 ft yükseklikte parçalı çok bulutlu, Kümülonimbus.

TAF: UUOO 311700Z 3118/0103 30007MPS 9999 BKN015CB

4.000'den fazla havaalanı için hava durumu gözlemleri ve tahminleri (METAR ve TAF raporları).

Kullanılabilir istasyonlar harita üzerinde sarı ve kırmızı noktalarla gösterilir.

İstasyonun adını görmek için fareyi noktanın üzerinde gezdirin.

Sonrasında hava gözlem ve tahminlerini görmek için tıklayın.

Haritayı değiştirmek için: yaklaştırmak için siyah artı işaretli yeşil düğmeye ve uzaklaştırmak için de eksi işaretli düğmeye hızla tıklayın; bitişik haritalar için yeşil okları kullanın.


METAR-TAF: